Time;durP1;ratioP1;P1;durP2;ratioP2;P2;SDS_P1;SDS_P2;PMS_P1;PMS_P2;Temp;Humidity;BMP_temperature;BMP_pressure;BME280_temperature;BME280_humidity;BME280_pressure;Samples;Min_cycle;Max_cycle;Signal;HPM_P1;HPM_P2
2022/04/13 00:00:49;;;;;;;;;;;;;;;6.95;59.58;100239.63;4309651;33;20246;-94
2022/04/13 00:03:14;;;;;;;;;;;;;;;6.94;59.58;100241.34;4308993;33;19999;-94
2022/04/13 00:05:39;;;;;;;;;;;;;;;6.95;59.58;100243.06;4309963;33;19991;-94
2022/04/13 00:08:07;;;;;;;;;;;;;;;6.85;59.57;100250.91;4309725;33;19983;-93
2022/04/13 00:10:36;;;;;;;;;;;;;;;6.92;59.57;100248.28;4309396;33;20088;-93
2022/04/13 00:13:01;;;;;;;;;;;;;;;6.79;59.58;100246.66;4308268;33;20023;-94
2022/04/13 00:15:27;;;;;;;;;;;;;;;6.87;59.58;100252.66;4309096;33;19996;-91
2022/04/13 00:17:52;;;;;;;;;;;;;;;6.78;59.56;100255.28;4309431;33;20015;-94
2022/04/13 00:20:17;;;;;;;;;;;;;;;6.82;59.57;100256.97;4309061;33;20024;-94
2022/04/13 00:22:42;;;;;;;;;;;;;;;6.78;59.56;100261.31;4309037;33;20019;-93
2022/04/13 00:25:08;;;;;;;;;;;;;;;6.75;59.56;100258.75;4308964;33;20004;-94
2022/04/13 00:27:33;;;;;;;;;;;;;;;6.61;59.56;100257.16;4309015;33;20345;-94
2022/04/13 00:29:58;;;;;;;;;;;;;;;6.65;59.57;100257.13;4309150;33;19983;-93
2022/04/13 00:32:25;;;;;;;;;;;;;;;6.58;59.56;100252.84;4308861;33;20005;-94
2022/04/13 00:34:50;;;;;;;;;;;;;;;6.54;59.55;100260.66;4309237;33;19987;-94
2022/04/13 00:37:16;;;;;;;;;;;;;;;6.41;59.54;100258.19;4308879;33;19998;-94
2022/04/13 00:39:42;;;;;;;;;;;;;;;6.54;59.55;100252.91;4308923;33;20333;-93
2022/04/13 00:42:07;;;;;;;;;;;;;;;6.50;59.55;100254.66;4308774;33;20048;-93
2022/04/13 00:44:33;;;;;;;;;;;;;;;6.46;59.55;100259.00;4309081;33;20035;-94
2022/04/13 00:47:03;;;;;;;;;;;;;;;6.50;59.55;100259.81;4309648;33;19994;-96
2022/04/13 00:49:29;;;;;;;;;;;;;;;6.54;59.55;100251.16;4310034;33;19984;-94
2022/04/13 00:51:54;;;;;;;;;;;;;;;6.62;59.55;100264.03;4309578;33;20011;-94
2022/04/13 00:54:19;;;;;;;;;;;;;;;6.50;59.55;100252.06;4309859;33;20007;-95
2022/04/13 00:56:45;;;;;;;;;;;;;;;6.55;59.55;100254.63;4309875;33;20018;-96
2022/04/13 00:59:12;;;;;;;;;;;;;;;6.40;59.54;100256.47;4326002;33;19976;-96
2022/04/13 01:01:37;;;;;;;;;;;;;;;6.50;59.55;100262.41;4315618;33;20016;-95
2022/04/13 01:04:03;;;;;;;;;;;;;;;6.52;59.55;100258.09;4310444;33;20010;-95
2022/04/13 01:06:28;;;;;;;;;;;;;;;6.46;59.55;100260.72;4310569;33;20006;-96
2022/04/13 01:08:54;;;;;;;;;;;;;;;6.46;59.55;100263.31;4310413;33;19996;-95
2022/04/13 01:11:19;;;;;;;;;;;;;;;6.33;59.54;100262.53;4311260;33;20041;-96
2022/04/13 01:13:46;;;;;;;;;;;;;;;6.23;59.54;100265.19;4314568;33;19996;-96
2022/04/13 01:16:11;;;;;;;;;;;;;;;6.35;59.55;100259.94;4313825;33;19983;-96
2022/04/13 01:18:37;;;;;;;;;;;;;;;6.27;59.53;100256.53;4311309;33;19975;-95
2022/04/13 01:21:02;;;;;;;;;;;;;;;6.37;59.54;100258.19;4308276;33;20070;-96
2022/04/13 01:23:27;;;;;;;;;;;;;;;6.35;59.55;100268.53;4309536;33;20341;-95
2022/04/13 01:25:53;;;;;;;;;;;;;;;6.27;59.54;100275.50;4312106;33;20035;-96
2022/04/13 01:28:19;;;;;;;;;;;;;;;6.35;59.55;100265.09;4312072;33;19984;-95
2022/04/13 01:30:44;;;;;;;;;;;;;;;6.25;59.53;100274.66;4311895;33;20019;-96
2022/04/13 01:33:09;;;;;;;;;;;;;;;6.19;59.53;100266.94;4312111;33;20324;-96
2022/04/13 01:35:34;;;;;;;;;;;;;;;6.11;59.52;100266.09;4312006;33;20010;-95
2022/04/13 01:38:00;;;;;;;;;;;;;;;6.12;59.52;100273.84;4310401;33;19992;-95
2022/04/13 01:40:25;;;;;;;;;;;;;;;6.13;59.54;100269.53;4310499;33;19987;-96
2022/04/13 01:42:50;;;;;;;;;;;;;;;6.26;59.53;100271.19;4311240;33;20397;-95
2022/04/13 01:45:19;;;;;;;;;;;;;;;6.18;59.53;100280.72;4311411;33;19975;-96
2022/04/13 01:47:48;;;;;;;;;;;;;;;6.31;59.54;100276.31;4312218;33;19987;-95
2022/04/13 01:50:14;;;;;;;;;;;;;;;6.18;59.53;100285.03;4311640;33;19987;-94
2022/04/13 01:52:39;;;;;;;;;;;;;;;5.89;59.51;100285.13;4311631;33;19992;-95
2022/04/13 01:55:05;;;;;;;;;;;;;;;5.94;59.52;100294.63;4311378;33;19994;-95
2022/04/13 01:57:30;;;;;;;;;;;;;;;6.05;59.53;100292.00;4311516;33;20014;-94
2022/04/13 01:59:55;;;;;;;;;;;;;;;6.00;59.52;100280.81;4311541;33;20006;-96
2022/04/13 02:02:21;;;;;;;;;;;;;;;6.04;59.52;100285.97;4311909;33;20475;-96
2022/04/13 02:04:48;;;;;;;;;;;;;;;5.96;59.51;100292.91;4311519;33;20000;-95
2022/04/13 02:07:13;;;;;;;;;;;;;;;6.00;59.52;100297.19;4312645;33;19988;-95
2022/04/13 02:09:38;;;;;;;;;;;;;;;5.88;59.51;100289.44;4312483;33;20290;-96
2022/04/13 02:12:04;;;;;;;;;;;;;;;5.83;59.52;100292.06;4312328;33;20047;-95
2022/04/13 02:14:29;;;;;;;;;;;;;;;5.93;59.52;100294.66;4313701;33;20031;-96
2022/04/13 02:16:55;;;;;;;;;;;;;;;5.85;59.51;100297.22;4312774;33;20040;-96
2022/04/13 02:19:21;;;;;;;;;;;;;;;5.77;59.51;100294.66;4313137;33;20035;-96
2022/04/13 02:22:22;;;;;;;;;;;;;;;5.72;59.51;100295.56;4349293;33;19968;-96
2022/04/13 02:24:57;;;;;;;;;;;;;;;5.65;59.50;100304.16;4349554;32;20100;-96
2022/04/13 02:27:42;;;;;;;;;;;;;;;5.66;59.49;100305.88;4345452;33;19956;-96
2022/04/13 02:30:15;;;;;;;;;;;;;;;5.64;59.50;100295.56;4345391;33;20009;-96
2022/04/13 02:32:43;;;;;;;;;;;;;;;5.63;59.50;100300.72;4333112;33;20053;-96
2022/04/13 02:35:09;;;;;;;;;;;;;;;5.51;59.49;100299.06;4338070;33;20002;-95
2022/04/13 02:37:35;;;;;;;;;;;;;;;5.62;59.50;100299.88;4325721;33;19980;-96
2022/04/13 02:40:00;;;;;;;;;;;;;;;5.65;59.50;100296.41;4323905;33;20008;-96
2022/04/13 02:42:30;;;;;;;;;;;;;;;5.62;59.50;100296.44;4320850;33;19992;-95
2022/04/13 02:44:55;;;;;;;;;;;;;;;5.62;59.50;100299.00;4320634;33;19980;-96
2022/04/13 02:47:21;;;;;;;;;;;;;;;5.57;59.49;100305.94;4320703;33;20411;-94
2022/04/13 02:49:48;;;;;;;;;;;;;;;5.64;59.50;100310.19;4321994;33;20036;-94
2022/04/13 02:52:13;;;;;;;;;;;;;;;5.48;59.49;100299.06;4319944;33;19972;-94
2022/04/13 02:54:38;;;;;;;;;;;;;;;5.56;59.49;100302.47;4320008;33;23488;-95
2022/04/13 02:57:03;;;;;;;;;;;;;;;5.62;59.50;100305.03;4329810;33;19984;-94
2022/04/13 02:59:29;;;;;;;;;;;;;;;5.63;59.50;100305.91;4320575;33;20000;-95
2022/04/13 03:01:54;;;;;;;;;;;;;;;5.59;59.49;100307.63;4308335;33;20004;-95
2022/04/13 03:04:20;;;;;;;;;;;;;;;5.49;59.49;100305.94;4321527;33;20016;-93
2022/04/13 03:06:45;;;;;;;;;;;;;;;5.64;59.50;100303.31;4308529;33;19976;-94
2022/04/13 03:09:11;;;;;;;;;;;;;;;5.77;59.51;100301.56;4325076;33;20347;-95
2022/04/13 03:11:38;;;;;;;;;;;;;;;5.63;59.50;100314.50;4320271;33;20012;-94
2022/04/13 03:14:03;;;;;;;;;;;;;;;5.69;59.51;100306.75;4320227;33;20031;-95
2022/04/13 03:16:28;;;;;;;;;;;;;;;5.71;59.51;100310.19;4320043;33;20033;-94
2022/04/13 03:18:53;;;;;;;;;;;;;;;5.56;59.49;100307.66;4308247;33;20318;-96
2022/04/13 03:21:19;;;;;;;;;;;;;;;5.71;59.50;100306.75;4320538;33;20000;-95
2022/04/13 03:23:44;;;;;;;;;;;;;;;5.66;59.49;100309.31;4320429;33;20003;-96
2022/04/13 03:26:09;;;;;;;;;;;;;;;5.71;59.50;100314.50;4320442;33;19988;-95
2022/04/13 03:28:34;;;;;;;;;;;;;;;5.68;59.50;100320.53;4320237;33;20000;-95
2022/04/13 03:31:00;;;;;;;;;;;;;;;5.61;59.49;100315.37;4320293;33;20008;-96
2022/04/13 03:33:25;;;;;;;;;;;;;;;5.61;59.49;100320.53;4320389;33;20020;-96
2022/04/13 03:35:51;;;;;;;;;;;;;;;5.51;59.49;100325.75;4320359;33;20032;-94
2022/04/13 03:38:16;;;;;;;;;;;;;;;5.59;59.50;100325.72;4320405;33;19996;-95
2022/04/13 03:40:41;;;;;;;;;;;;;;;5.60;59.49;100319.69;4308379;33;20014;-93
2022/04/13 03:43:06;;;;;;;;;;;;;;;5.54;59.49;100324.87;4320046;33;20350;-95
2022/04/13 03:45:32;;;;;;;;;;;;;;;5.48;59.49;100328.34;4307722;33;20034;-93
2022/04/13 03:47:57;;;;;;;;;;;;;;;5.48;59.49;100332.63;4314963;33;20003;-95
2022/04/13 03:50:22;;;;;;;;;;;;;;;5.43;59.49;100337.78;4320943;33;20038;-93
2022/04/13 03:52:47;;;;;;;;;;;;;;;5.36;59.48;100337.81;4319308;33;19980;-94
2022/04/13 03:55:13;;;;;;;;;;;;;;;5.33;59.49;100340.41;4324664;33;20046;-96
2022/04/13 03:57:38;;;;;;;;;;;;;;;5.24;59.47;100343.84;4310060;33;19996;-93
2022/04/13 04:00:04;;;;;;;;;;;;;;;5.13;59.47;100346.44;4319545;33;20350;-91
2022/04/13 04:02:29;;;;;;;;;;;;;;;5.12;59.47;100346.44;4321549;33;20042;-93
2022/04/13 04:04:55;;;;;;;;;;;;;;;5.10;59.47;100349.00;4319404;33;20024;-95
2022/04/13 04:07:20;;;;;;;;;;;;;;;5.12;59.47;100336.97;4318726;33;20023;-92
2022/04/13 04:09:45;;;;;;;;;;;;;;;5.29;59.47;100351.59;4317388;33;19996;-92
2022/04/13 04:12:10;;;;;;;;;;;;;;;5.18;59.48;100343.84;4317667;33;20032;-94
2022/04/13 04:14:36;;;;;;;;;;;;;;;5.22;59.48;100353.31;4305947;33;20266;-92
2022/04/13 04:17:04;;;;;;;;;;;;;;;5.14;59.47;100350.72;4320628;33;19992;-95
2022/04/13 04:19:29;;;;;;;;;;;;;;;5.24;59.48;100347.31;4311308;33;20000;-96
2022/04/13 04:21:55;;;;;;;;;;;;;;;5.01;59.47;100356.78;4320423;33;20262;-94
2022/04/13 04:24:21;;;;;;;;;;;;;;;5.09;59.47;100357.62;4320621;33;19992;-96
2022/04/13 04:26:46;;;;;;;;;;;;;;;5.07;59.46;100355.91;4320466;33;20028;-96
2022/04/13 04:29:11;;;;;;;;;;;;;;;5.34;59.48;100353.31;4324131;33;20020;-94
2022/04/13 04:31:53;;;;;;;;;;;;;;;5.16;59.48;100364.50;4317365;33;19988;-94
2022/04/13 04:34:19;;;;;;;;;;;;;;;5.26;59.48;100361.91;4318080;33;20032;-92
2022/04/13 04:36:44;;;;;;;;;;;;;;;5.20;59.48;100367.91;4315847;33;20019;-94
2022/04/13 04:39:10;;;;;;;;;;;;;;;5.33;59.49;100368.78;4316699;33;20004;-93
2022/04/13 04:41:35;;;;;;;;;;;;;;;5.43;59.49;100373.06;4316081;33;20555;-93
2022/04/13 04:44:00;;;;;;;;;;;;;;;5.51;59.49;100371.34;4316036;33;19999;-93
2022/04/13 04:46:26;;;;;;;;;;;;;;;5.65;59.50;100371.31;4315541;33;25533;-92
2022/04/13 04:48:51;;;;;;;;;;;;;;;5.62;59.50;100367.03;4306249;33;20000;-92
2022/04/13 04:51:16;;;;;;;;;;;;;;;5.71;59.51;100374.78;4317817;33;20274;-92
2022/04/13 04:53:42;;;;;;;;;;;;;;;5.92;59.51;100373.88;4318296;33;19998;-92
2022/04/13 04:56:07;;;;;;;;;;;;;;;5.84;59.51;100371.28;4318128;33;20004;-95
2022/04/13 04:58:32;;;;;;;;;;;;;;;5.83;59.52;100373.84;4317168;33;20297;-92
2022/04/13 05:00:58;;;;;;;;;;;;;;;6.03;59.52;100377.28;4319174;33;19988;-91
2022/04/13 05:03:23;;;;;;;;;;;;;;;6.17;59.53;100373.78;4319236;33;20022;-92
2022/04/13 05:05:48;;;;;;;;;;;;;;;6.33;59.53;100368.53;4319076;33;20004;-91
2022/04/13 05:08:13;;;;;;;;;;;;;;;6.45;59.55;100376.25;4319033;33;19992;-89
2022/04/13 05:10:39;;;;;;;;;;;;;;;6.75;59.56;100371.75;4318792;33;20291;-90
2022/04/13 05:13:05;;;;;;;;;;;;;;;7.04;59.58;100371.53;4328119;33;20068;-90
2022/04/13 05:15:31;;;;;;;;;;;;;;;7.32;59.60;100370.44;4320512;33;19988;-89
2022/04/13 05:17:56;;;;;;;;;;;;;;;7.48;59.61;100376.34;4318541;33;20014;-91
2022/04/13 05:20:21;;;;;;;;;;;;;;;7.63;59.62;100373.59;4318487;33;20246;-90
2022/04/13 05:22:46;;;;;;;;;;;;;;;7.85;59.63;100378.56;4318643;33;19988;-89
2022/04/13 05:25:12;;;;;;;;;;;;;;;8.05;59.63;100374.03;4318291;33;20016;-90
2022/04/13 05:27:38;;;;;;;;;;;;;;;8.12;59.64;100372.19;4318605;33;19996;-89
2022/04/13 05:30:04;;;;;;;;;;;;;;;8.30;59.65;100383.22;4330396;33;19991;-89
2022/04/13 05:32:29;;;;;;;;;;;;;;;8.54;59.66;100378.63;4319558;33;19980;-88
2022/04/13 05:35:01;;;;;;;;;;;;;;;8.74;59.68;100379.16;4331134;33;20008;-89
2022/04/13 05:37:26;;;;;;;;;;;;;;;8.84;59.68;100388.56;4318558;33;20066;-92
2022/04/13 05:39:52;;;;;;;;;;;;;;;9.01;59.69;100383.13;4318994;33;19984;-90
2022/04/13 05:42:21;;;;;;;;;;;;;;;9.15;59.70;100388.94;4318451;33;20315;-89
2022/04/13 05:44:46;;;;;;;;;;;;;;;9.37;59.71;100392.03;4318472;33;20016;-91
2022/04/13 05:47:11;;;;;;;;;;;;;;;9.52;59.72;100396.97;4330526;33;20416;-91
2022/04/13 05:49:37;;;;;;;;;;;;;;;9.64;59.73;100393.28;4330596;33;20007;-91
2022/04/13 05:52:02;;;;;;;;;;;;;;;9.90;59.74;100387.62;4318253;33;19984;-91
2022/04/13 05:54:27;;;;;;;;;;;;;;;10.05;59.75;100386.47;4318291;33;20000;-92
2022/04/13 05:56:52;;;;;;;;;;;;;;;10.29;59.76;100382.56;4317766;33;20066;-90
2022/04/13 05:59:18;;;;;;;;;;;;;;;10.37;59.76;100385.84;4317800;33;20323;-89
2022/04/13 06:01:43;;;;;;;;;;;;;;;10.63;59.78;100378.31;4318359;33;19984;-90
2022/04/13 06:04:09;;;;;;;;;;;;;;;10.66;59.78;100387.84;4318171;33;20391;-91
2022/04/13 06:06:34;;;;;;;;;;;;;;;10.73;59.78;100387.66;4330087;33;19988;-91
2022/04/13 06:08:59;;;;;;;;;;;;;;;11.08;59.81;100385.97;4317842;33;19989;-90
2022/04/13 06:11:25;;;;;;;;;;;;;;;11.14;59.81;100391.06;4329806;33;20004;-91
2022/04/13 06:13:50;;;;;;;;;;;;;;;11.40;59.82;100397.38;4318134;33;20350;-91
2022/04/13 06:16:15;;;;;;;;;;;;;;;11.37;59.81;100400.94;4318508;33;20027;-89
2022/04/13 06:18:40;;;;;;;;;;;;;;;11.53;59.84;100396.16;4330812;33;19976;-92
2022/04/13 06:21:06;;;;;;;;;;;;;;;11.80;59.84;100403.28;4317062;33;19984;-92
2022/04/13 06:23:32;;;;;;;;;;;;;;;12.07;59.86;100411.31;4317933;33;19988;-91
2022/04/13 06:25:57;;;;;;;;;;;;;;;12.14;59.87;100405.84;4317971;33;19988;-90
2022/04/13 06:28:23;;;;;;;;;;;;;;;12.15;59.86;100399.75;4317893;33;20287;-92
2022/04/13 06:30:48;;;;;;;;;;;;;;;12.35;59.88;100407.00;4317783;33;20027;-91
2022/04/13 06:33:13;;;;;;;;;;;;;;;12.43;59.89;100402.41;4318119;33;20048;-91
2022/04/13 06:35:38;;;;;;;;;;;;;;;12.42;59.88;100405.91;4319880;33;19996;-92
2022/04/13 06:38:04;;;;;;;;;;;;;;;12.65;59.88;100412.22;4326764;33;20000;-92
2022/04/13 06:40:29;;;;;;;;;;;;;;;12.57;59.89;100415.94;4318791;33;19980;-91
2022/04/13 06:42:55;;;;;;;;;;;;;;;12.72;59.89;100413.75;4317948;33;19996;-91
2022/04/13 06:45:20;;;;;;;;;;;;;;;12.75;59.90;100406.66;4317907;33;20018;-92
2022/04/13 06:47:48;;;;;;;;;;;;;;;12.88;59.91;100413.25;4318095;33;19984;-92
2022/04/13 06:50:13;;;;;;;;;;;;;;;12.95;59.90;100415.66;4317838;33;19992;-93
2022/04/13 06:52:38;;;;;;;;;;;;;;;12.94;59.91;100414.81;4318127;33;19996;-93
2022/04/13 06:55:04;;;;;;;;;;;;;;;13.18;59.92;100415.81;4318338;33;20044;-92
2022/04/13 06:57:30;;;;;;;;;;;;;;;13.34;59.93;100410.97;4318027;33;19976;-92
2022/04/13 06:59:56;;;;;;;;;;;;;;;13.46;59.94;100408.78;4318076;33;19995;-92
2022/04/13 07:02:24;;;;;;;;;;;;;;;13.56;59.95;100413.72;4317914;33;20003;-92
2022/04/13 07:04:49;;;;;;;;;;;;;;;13.60;59.94;100410.94;4317840;33;20005;-92
2022/04/13 07:07:14;;;;;;;;;;;;;;;13.74;59.95;100413.09;4317805;33;19972;-92
2022/04/13 07:09:40;;;;;;;;;;;;;;;13.74;59.96;100413.09;4317663;33;20040;-92
2022/04/13 07:12:05;;;;;;;;;;;;;;;13.90;59.96;100409.03;4317658;33;19991;-91
2022/04/13 07:14:31;;;;;;;;;;;;;;;13.97;59.97;100415.78;4318001;33;20243;-91
2022/04/13 07:16:56;;;;;;;;;;;;;;;14.07;59.97;100411.91;4317471;33;19976;-92
2022/04/13 07:19:22;;;;;;;;;;;;;;;14.07;59.97;100419.75;4317999;33;20007;-92
2022/04/13 07:21:47;;;;;;;;;;;;;;;14.09;59.98;100423.19;4317288;33;20327;-92
2022/04/13 07:24:12;;;;;;;;;;;;;;;14.16;59.97;100420.31;4317972;33;20024;-91
2022/04/13 07:26:38;;;;;;;;;;;;;;;14.27;59.98;100418.19;4317752;33;19992;-92
2022/04/13 07:29:03;;;;;;;;;;;;;;;14.32;59.99;100424.97;4324482;33;20039;-91
2022/04/13 07:31:29;;;;;;;;;;;;;;;14.51;60.00;100422.56;4317495;33;20000;-92
2022/04/13 07:33:55;;;;;;;;;;;;;;;14.54;59.99;100416.34;4317593;33;20023;-92
2022/04/13 07:36:20;;;;;;;;;;;;;;;14.57;60.00;100416.22;4317739;33;20366;-92
2022/04/13 07:38:46;;;;;;;;;;;;;;;14.50;60.00;100417.38;4317355;33;20010;-91
2022/04/13 07:41:11;;;;;;;;;;;;;;;14.58;60.00;100417.94;4317491;33;20056;-92
2022/04/13 07:43:37;;;;;;;;;;;;;;;14.84;60.01;100420.41;4329768;33;20003;-92
2022/04/13 07:46:02;;;;;;;;;;;;;;;14.79;60.02;100424.97;4329987;33;20005;-91
2022/04/13 07:48:29;;;;;;;;;;;;;;;14.93;60.03;100424.47;4317544;33;19998;-92
2022/04/13 07:50:54;;;;;;;;;;;;;;;15.08;60.02;100417.75;4317362;33;19997;-93
2022/04/13 07:53:20;;;;;;;;;;;;;;;15.14;60.03;100420.09;4317367;33;19996;-91
2022/04/13 07:55:45;;;;;;;;;;;;;;;15.11;60.03;100425.47;4317455;33;19984;-92
2022/04/13 07:58:10;;;;;;;;;;;;;;;15.26;60.04;100424.88;4318063;33;20011;-90
2022/04/13 08:00:35;;;;;;;;;;;;;;;15.43;60.05;100426.81;4327078;33;20022;-91
2022/04/13 08:03:01;;;;;;;;;;;;;;;15.42;60.05;100435.59;4319580;33;20015;-92
2022/04/13 08:05:26;;;;;;;;;;;;;;;15.53;60.04;100415.00;4318475;33;20484;-91
2022/04/13 08:07:51;;;;;;;;;;;;;;;15.83;60.07;100415.50;4317277;33;19980;-91
2022/04/13 08:10:17;;;;;;;;;;;;;;;15.81;60.07;100431.34;4317158;33;20000;-91
2022/04/13 08:12:42;;;;;;;;;;;;;;;15.93;60.08;100424.72;4317202;33;20016;-92
2022/04/13 08:15:08;;;;;;;;;;;;;;;16.14;60.08;100423.78;4329593;33;19991;-92
2022/04/13 08:17:34;;;;;;;;;;;;;;;16.19;60.09;100429.69;4317054;33;19988;-92
2022/04/13 08:19:59;;;;;;;;;;;;;;;16.23;60.09;100425.12;4316932;33;20007;-93
2022/04/13 08:22:25;;;;;;;;;;;;;;;16.19;60.09;100428.81;4317071;33;20014;-91
2022/04/13 08:24:50;;;;;;;;;;;;;;;16.36;60.09;100422.81;4317183;33;19980;-92
2022/04/13 08:27:15;;;;;;;;;;;;;;;16.53;60.10;100422.91;4317447;33;19988;-92
2022/04/13 08:29:40;;;;;;;;;;;;;;;16.48;60.11;100427.50;4317138;33;19980;-93
2022/04/13 08:32:06;;;;;;;;;;;;;;;16.45;60.10;100433.75;4317278;33;20405;-93
2022/04/13 08:34:31;;;;;;;;;;;;;;;16.69;60.13;100423.09;4317945;33;19976;-91
2022/04/13 08:36:56;;;;;;;;;;;;;;;16.84;60.12;100420.59;4318892;33;19977;-92
2022/04/13 08:39:22;;;;;;;;;;;;;;;17.08;60.14;100417.72;4319045;33;20313;-92
2022/04/13 08:41:49;;;;;;;;;;;;;;;17.30;60.16;100420.19;4318879;33;20251;-89
2022/04/13 08:44:18;;;;;;;;;;;;;;;17.53;60.16;100419.03;4319155;33;20000;-90
2022/04/13 08:46:44;;;;;;;;;;;;;;;17.68;60.17;100418.28;4318637;33;19980;-90
2022/04/13 08:49:09;;;;;;;;;;;;;;;17.91;60.18;100417.97;4319018;33;19988;-90
2022/04/13 08:51:35;;;;;;;;;;;;;;;17.97;60.18;100416.78;4318879;33;19999;-91
2022/04/13 08:54:05;;;;;;;;;;;;;;;18.00;60.20;100419.28;4319196;33;20027;-92
2022/04/13 08:56:30;;;;;;;;;;;;;;;17.83;60.17;100416.66;4318860;33;19988;-90
2022/04/13 08:59:15;;;;;;;;;;;;;;;17.61;60.17;100422.97;4318730;33;20015;-91
2022/04/13 09:02:00;;;;;;;;;;;;;;;17.68;60.17;100428.81;4305916;33;20008;-91
2022/04/13 09:04:26;;;;;;;;;;;;;;;17.52;60.16;100418.19;4319045;33;19977;-92
2022/04/13 09:06:51;;;;;;;;;;;;;;;17.44;60.16;100415.06;4319362;33;19983;-91
2022/04/13 09:09:23;;;;;;;;;;;;;;;17.70;60.18;100414.62;4319062;33;19995;-90
2022/04/13 09:11:50;;;;;;;;;;;;;;;17.60;60.16;100416.00;4318497;33;20417;-91
2022/04/13 09:14:15;;;;;;;;;;;;;;;17.93;60.19;100409.97;4318543;33;19991;-91
2022/04/13 09:16:41;;;;;;;;;;;;;;;17.96;60.18;100422.97;4318475;33;19976;-90
2022/04/13 09:19:06;;;;;;;;;;;;;;;17.91;60.18;100415.31;4319034;33;20003;-91
2022/04/13 09:21:32;;;;;;;;;;;;;;;17.62;60.18;100416.78;4318737;33;19992;-91
2022/04/13 09:23:58;;;;;;;;;;;;;;;17.97;60.19;100412.38;4328264;33;19953;-90
2022/04/13 09:26:23;;;;;;;;;;;;;;;18.10;60.19;100415.22;4320943;33;20044;-90
2022/04/13 09:28:48;;;;;;;;;;;;;;;18.28;60.20;100410.78;4323943;33;19996;-91
2022/04/13 09:31:13;;;;;;;;;;;;;;;18.60;60.22;100403.75;4330744;33;20042;-91
2022/04/13 09:33:39;;;;;;;;;;;;;;;18.62;60.23;100402.75;4318444;33;20387;-91
2022/04/13 09:36:04;;;;;;;;;;;;;;;18.64;60.23;100406.16;4318562;33;20146;-91
2022/04/13 09:38:29;;;;;;;;;;;;;;;18.55;60.22;100405.78;4319096;33;19984;-91
2022/04/13 09:40:56;;;;;;;;;;;;;;;18.46;60.22;100401.88;4318717;33;20008;-91
2022/04/13 09:43:22;;;;;;;;;;;;;;;18.60;60.22;100404.59;4318409;33;20754;-91
2022/04/13 09:45:49;;;;;;;;;;;;;;;18.74;60.22;100398.62;4318204;33;20654;-91
2022/04/13 09:48:15;;;;;;;;;;;;;;;18.98;60.24;100396.41;4318248;33;20048;-91
2022/04/13 09:50:41;;;;;;;;;;;;;;;19.16;60.26;100387.41;4330566;33;20823;-90
2022/04/13 09:53:06;;;;;;;;;;;;;;;19.40;60.27;100385.16;4318595;33;20028;-91
2022/04/13 09:55:39;;;;;;;;;;;;;;;19.37;60.26;100389.75;4332589;33;20023;-91
2022/04/13 09:58:08;;;;;;;;;;;;;;;19.46;60.27;100391.88;4318180;33;20010;-91
2022/04/13 10:00:34;;;;;;;;;;;;;;;19.75;60.28;100392.81;4318188;33;20086;-91
2022/04/13 10:03:07;;;;;;;;;;;;;;;19.75;60.28;100390.19;4318209;33;19980;-94
2022/04/13 10:05:32;;;;;;;;;;;;;;;19.66;60.28;100383.66;4318365;33;20413;-91
2022/04/13 10:08:02;;;;;;;;;;;;;;;19.73;60.29;100387.62;4318210;33;19995;-91
2022/04/13 10:10:28;;;;;;;;;;;;;;;19.71;60.28;100378.94;4317987;33;19996;-91
2022/04/13 10:12:53;;;;;;;;;;;;;;;19.97;60.30;100384.47;4318207;33;20034;-91
2022/04/13 10:15:19;;;;;;;;;;;;;;;19.95;60.29;100376.63;4318261;33;20020;-92
2022/04/13 10:17:44;;;;;;;;;;;;;;;19.77;60.29;100383.88;4318209;33;20023;-91
2022/04/13 10:20:09;;;;;;;;;;;;;;;19.95;60.30;100378.41;4318358;33;20052;-91
2022/04/13 10:22:54;;;;;;;;;;;;;;;20.14;60.30;100373.72;4330632;33;20040;-92
2022/04/13 10:25:27;;;;;;;;;;;;;;;20.22;60.30;100372.28;4318214;33;20278;-91
2022/04/13 10:27:56;;;;;;;;;;;;;;;20.26;60.31;100372.94;4332347;33;19984;-91
2022/04/13 10:30:25;;;;;;;;;;;;;;;20.46;60.33;100372.56;4320618;33;20333;-92
2022/04/13 10:33:04;;;;;;;;;;;;;;;20.66;60.33;100366.03;4308617;33;20034;-90
2022/04/13 10:35:30;;;;;;;;;;;;;;;20.69;60.33;100365.84;4320971;33;19991;-91
2022/04/13 10:37:58;;;;;;;;;;;;;;;20.70;60.33;100356.94;4320600;33;20002;-91
2022/04/13 10:40:24;;;;;;;;;;;;;;;20.68;60.34;100355.34;4321110;33;20682;-91
2022/04/13 10:42:50;;;;;;;;;;;;;;;21.00;60.36;100345.31;4308517;33;19979;-91
2022/04/13 10:45:16;;;;;;;;;;;;;;;21.29;60.37;100351.34;4308383;33;19994;-91
2022/04/13 10:47:56;;;;;;;;;;;;;;;21.51;60.37;100338.34;4326828;33;19992;-91
2022/04/13 10:50:30;;;;;;;;;;;;;;;21.61;60.38;100339.44;4313188;33;20010;-90
2022/04/13 10:53:17;;;;;;;;;;;;;;;21.68;60.39;100324.81;4308910;33;20753;-92
2022/04/13 10:55:43;;;;;;;;;;;;;;;21.68;60.38;100331.91;4308354;33;20043;-90
2022/04/13 10:58:11;;;;;;;;;;;;;;;21.70;60.40;100335.31;4319961;33;20004;-90
2022/04/13 11:00:36;;;;;;;;;;;;;;;21.80;60.39;100328.44;4320567;33;20000;-91
2022/04/13 11:03:03;;;;;;;;;;;;;;;21.90;60.40;100318.03;4308281;33;20511;-90
2022/04/13 11:05:28;;;;;;;;;;;;;;;22.00;60.40;100319.06;4308436;33;19988;-91
2022/04/13 11:08:13;;;;;;;;;;;;;;;21.95;60.41;100316.75;4308418;33;19987;-91
2022/04/13 11:10:38;;;;;;;;;;;;;;;21.86;60.40;100322.69;4333720;33;20326;-91
2022/04/13 11:13:03;;;;;;;;;;;;;;;21.90;60.40;100315.37;4320218;33;20359;-91
2022/04/13 11:15:43;;;;;;;;;;;;;;;21.91;60.40;100312.63;4319985;33;20002;-91
2022/04/13 11:18:18;;;;;;;;;;;;;;;22.18;60.42;100299.25;4308101;33;19998;-91
2022/04/13 11:20:58;;;;;;;;;;;;;;;22.18;60.42;100307.19;4308089;33;19968;-91
2022/04/13 11:23:24;;;;;;;;;;;;;;;22.23;60.41;100299.75;4333679;33;19990;-91
2022/04/13 11:25:51;;;;;;;;;;;;;;;22.27;60.42;100298.59;4307947;33;19979;-91
2022/04/13 11:28:42;;;;;;;;;;;;;;;22.26;60.42;100302.22;4333795;33;19996;-90
2022/04/13 11:31:10;;;;;;;;;;;;;;;22.22;60.42;100298.06;4316416;33;19992;-91
2022/04/13 11:33:51;;;;;;;;;;;;;;;22.18;60.42;100293.94;4308058;33;20062;-91
2022/04/13 11:36:17;;;;;;;;;;;;;;;22.16;60.42;100295.00;4307993;33;19988;-91
2022/04/13 11:38:46;;;;;;;;;;;;;;;22.11;60.41;100299.81;4308250;33;19988;-91
2022/04/13 11:41:11;;;;;;;;;;;;;;;21.95;60.41;100287.59;4321139;33;19996;-91
2022/04/13 11:43:38;;;;;;;;;;;;;;;21.76;60.40;100292.47;4333995;33;19991;-90
2022/04/13 11:46:04;;;;;;;;;;;;;;;21.72;60.39;100278.59;4307849;33;20084;-90
2022/04/13 11:48:35;;;;;;;;;;;;;;;21.71;60.40;100284.00;4307665;33;19987;-91
2022/04/13 11:51:19;;;;;;;;;;;;;;;21.51;60.38;100289.84;4307973;33;20010;-91
2022/04/13 11:53:54;;;;;;;;;;;;;;;21.59;60.38;100275.13;4333756;33;19977;-91
2022/04/13 11:56:38;;;;;;;;;;;;;;;21.89;60.40;100281.88;4320191;33;19987;-91
2022/04/13 11:59:04;;;;;;;;;;;;;;;22.02;60.41;100277.41;4320058;33;20027;-90
2022/04/13 12:01:29;;;;;;;;;;;;;;;22.18;60.42;100274.53;4320133;33;20007;-90
2022/04/13 12:03:55;;;;;;;;;;;;;;;22.23;60.42;100277.69;4307809;33;20023;-90
2022/04/13 12:06:25;;;;;;;;;;;;;;;22.35;60.43;100263.56;4320066;33;20007;-91
2022/04/13 12:08:53;;;;;;;;;;;;;;;22.37;60.42;100261.66;4320158;33;20047;-91
2022/04/13 12:11:19;;;;;;;;;;;;;;;22.57;60.44;100253.06;4319629;33;20015;-91
2022/04/13 12:13:45;;;;;;;;;;;;;;;22.54;60.43;100257.75;4312663;33;19956;-90
2022/04/13 12:16:12;;;;;;;;;;;;;;;22.65;60.45;100250.69;4316035;33;19984;-90
2022/04/13 12:18:37;;;;;;;;;;;;;;;22.75;60.45;100248.22;4308302;33;20365;-90
2022/04/13 12:21:09;;;;;;;;;;;;;;;22.75;60.45;100250.03;4307430;33;20010;-91
2022/04/13 12:23:38;;;;;;;;;;;;;;;22.88;60.45;100245.50;4307502;33;19976;-90
2022/04/13 12:26:04;;;;;;;;;;;;;;;22.96;60.46;100249.28;4307358;33;20007;-91
2022/04/13 12:28:29;;;;;;;;;;;;;;;22.97;60.46;100244.84;4307366;33;20302;-91
2022/04/13 12:30:55;;;;;;;;;;;;;;;23.08;60.46;100244.00;4306959;33;20008;-90
2022/04/13 12:33:23;;;;;;;;;;;;;;;23.13;60.47;100239.19;4319252;33;20015;-89
2022/04/13 12:35:52;;;;;;;;;;;;;;;23.01;60.46;100235.66;4308103;33;19992;-90
2022/04/13 12:38:21;;;;;;;;;;;;;;;22.91;60.46;100227.53;4295682;33;820656;-91